createdAt,value
2019-01-13T00:01:24.912Z,74.90
2019-01-13T00:04:16.952Z,75.00
2019-01-13T00:07:09.470Z,75.10
2019-01-13T00:10:01.635Z,75.10
2019-01-13T00:12:53.875Z,75.20
2019-01-13T00:15:46.475Z,75.10
2019-01-13T00:18:38.847Z,75.20
2019-01-13T00:21:31.419Z,75.10
2019-01-13T00:24:23.820Z,75.10
2019-01-13T00:27:16.234Z,75.10
2019-01-13T00:30:18.900Z,75.10
2019-01-13T00:33:06.047Z,74.90
2019-01-13T00:35:58.385Z,74.90
2019-01-13T00:38:50.494Z,74.90
2019-01-13T00:41:42.494Z,74.70
2019-01-13T00:44:34.570Z,74.80
2019-01-13T00:47:26.475Z,74.60
2019-01-13T00:50:18.952Z,74.60
2019-01-13T00:53:11.421Z,74.70
2019-01-13T00:56:03.776Z,74.70
2019-01-13T00:58:55.866Z,74.80
2019-01-13T01:01:49.137Z,74.80
2019-01-13T01:04:41.172Z,74.80
2019-01-13T01:07:33.521Z,74.80
2019-01-13T01:10:26.108Z,74.90
2019-01-13T01:13:18.508Z,74.90
2019-01-13T01:16:10.781Z,74.80
2019-01-13T01:19:03.174Z,74.90
2019-01-13T01:21:55.233Z,75.60
2019-01-13T01:24:48.104Z,74.90
2019-01-13T01:27:40.508Z,74.90
2019-01-13T01:30:33.523Z,75.00
2019-01-13T01:33:26.271Z,75.00
2019-01-13T01:36:18.178Z,75.10
2019-01-13T01:39:10.564Z,75.30
2019-01-13T01:42:02.751Z,75.10
2019-01-13T01:44:55.084Z,74.90
2019-01-13T01:47:47.492Z,74.90
2019-01-13T01:50:39.528Z,74.90
2019-01-13T01:53:31.494Z,74.80
2019-01-13T01:56:23.922Z,74.90
2019-01-13T01:59:16.042Z,75.30
2019-01-13T02:02:08.755Z,75.00
2019-01-13T02:05:00.862Z,75.00
2019-01-13T02:07:52.925Z,75.00
2019-01-13T02:10:44.808Z,75.00
2019-01-13T02:13:36.710Z,74.70
2019-01-13T02:16:28.549Z,74.90
2019-01-13T02:19:20.780Z,75.10
2019-01-13T02:22:12.861Z,74.80
2019-01-13T02:25:05.684Z,74.80
2019-01-13T02:27:57.563Z,75.00
2019-01-13T02:30:49.834Z,74.70
2019-01-13T02:33:42.462Z,74.80
2019-01-13T02:36:34.801Z,75.00
2019-01-13T02:39:27.925Z,75.40
2019-01-13T02:42:20.410Z,75.20
2019-01-13T02:45:14.599Z,75.00
2019-01-13T02:48:06.632Z,76.20
2019-01-13T02:50:59.134Z,75.00
2019-01-13T02:53:51.429Z,75.00
2019-01-13T02:56:44.094Z,74.90
2019-01-13T02:59:36.286Z,75.20
2019-01-13T03:02:28.491Z,75.20
2019-01-13T03:05:20.693Z,75.00
2019-01-13T03:08:13.354Z,74.90
2019-01-13T03:11:05.655Z,74.90
2019-01-13T03:13:58.329Z,75.00
2019-01-13T03:16:50.345Z,75.10
2019-01-13T03:19:42.435Z,74.90
2019-01-13T03:22:34.722Z,74.90
2019-01-13T03:25:26.998Z,75.10
2019-01-13T03:28:19.080Z,75.20
2019-01-13T03:31:12.735Z,75.00
2019-01-13T03:34:04.976Z,74.80
2019-01-13T03:36:56.626Z,75.10
2019-01-13T03:39:48.934Z,74.80
2019-01-13T03:42:41.223Z,75.30
2019-01-13T03:45:33.113Z,75.50
2019-01-13T03:48:25.084Z,75.10
2019-01-13T03:51:17.297Z,75.00
2019-01-13T03:54:10.353Z,75.20
2019-01-13T03:57:02.418Z,75.50
2019-01-13T03:59:54.704Z,75.10
2019-01-13T04:02:46.889Z,74.80
2019-01-13T04:05:39.727Z,74.90
2019-01-13T04:08:32.200Z,75.00
2019-01-13T04:11:25.141Z,74.70
2019-01-13T04:14:17.131Z,74.40
2019-01-13T04:17:09.288Z,75.00
2019-01-13T04:20:01.581Z,74.70
2019-01-13T04:22:53.748Z,75.00
2019-01-13T04:25:47.327Z,74.50
2019-01-13T04:28:39.840Z,73.10
2019-01-13T04:31:31.762Z,73.10
2019-01-13T04:34:24.282Z,73.70
2019-01-13T04:37:16.472Z,74.30
2019-01-13T04:40:08.841Z,74.60
2019-01-13T04:43:00.839Z,73.60
2019-01-13T04:45:53.207Z,74.00
2019-01-13T04:48:45.542Z,73.90
2019-01-13T04:51:37.779Z,73.70
2019-01-13T04:54:29.888Z,73.20
2019-01-13T04:57:22.106Z,73.60
2019-01-13T05:00:15.915Z,74.10
2019-01-13T05:03:08.089Z,74.70
2019-01-13T05:06:00.416Z,74.20
2019-01-13T05:08:52.589Z,74.40
2019-01-13T05:11:44.837Z,74.50
2019-01-13T05:14:36.864Z,74.50
2019-01-13T05:17:29.090Z,74.60
2019-01-13T05:20:22.088Z,74.90
2019-01-13T05:23:14.184Z,74.70
2019-01-13T05:26:06.964Z,74.40
2019-01-13T05:28:59.455Z,74.10
2019-01-13T05:31:51.961Z,74.10
2019-01-13T05:34:44.143Z,73.90
2019-01-13T05:37:36.893Z,73.30
2019-01-13T05:40:29.151Z,72.80
2019-01-13T05:43:22.809Z,72.80
2019-01-13T05:46:15.642Z,72.90
2019-01-13T05:49:08.101Z,73.30
2019-01-13T05:52:00.314Z,73.60
2019-01-13T05:54:52.927Z,73.70
2019-01-13T05:57:45.018Z,73.70
2019-01-13T06:00:42.283Z,73.70
2019-01-13T06:03:34.663Z,73.70
2019-01-13T06:06:26.962Z,73.60
2019-01-13T06:09:19.628Z,73.50
2019-01-13T06:12:12.162Z,73.70
2019-01-13T06:15:04.607Z,73.60
2019-01-13T06:17:57.550Z,73.50
2019-01-13T06:20:50.158Z,73.60
2019-01-13T06:23:42.531Z,73.50
2019-01-13T06:26:35.186Z,73.70
2019-01-13T06:29:27.873Z,73.80
2019-01-13T06:32:20.237Z,74.00
2019-01-13T06:35:12.817Z,74.10
2019-01-13T06:38:06.257Z,74.00
2019-01-13T06:40:58.762Z,74.20
2019-01-13T06:43:51.072Z,74.20
2019-01-13T06:46:43.686Z,74.20
2019-01-13T06:49:36.037Z,74.30
2019-01-13T06:52:28.296Z,74.90
2019-01-13T06:55:20.179Z,74.30
2019-01-13T06:58:12.975Z,74.30
2019-01-13T07:01:05.510Z,74.30
2019-01-13T07:03:57.846Z,74.20
2019-01-13T07:06:50.005Z,74.10
2019-01-13T07:09:42.179Z,74.00
2019-01-13T07:12:34.116Z,73.90
2019-01-13T07:15:26.447Z,74.10
2019-01-13T07:18:18.787Z,74.00
2019-01-13T07:21:11.033Z,74.00
2019-01-13T07:24:03.212Z,73.90
2019-01-13T07:26:55.684Z,73.80
2019-01-13T07:29:49.398Z,73.70
2019-01-13T07:32:41.645Z,73.70
2019-01-13T07:35:34.298Z,73.80
2019-01-13T07:38:26.556Z,73.80
2019-01-13T07:41:18.454Z,73.80
2019-01-13T07:44:10.673Z,73.60
2019-01-13T07:47:03.133Z,73.60
2019-01-13T07:49:55.156Z,73.60
2019-01-13T07:52:47.568Z,73.60
2019-01-13T07:55:39.844Z,73.60
2019-01-13T07:58:32.382Z,73.60
2019-01-13T08:01:24.499Z,73.50
2019-01-13T08:04:16.840Z,73.50
2019-01-13T08:07:09.110Z,73.50
2019-01-13T08:10:01.496Z,73.50
2019-01-13T08:12:53.878Z,73.50
2019-01-13T08:15:46.132Z,73.40
2019-01-13T08:18:38.270Z,73.50
2019-01-13T08:21:30.562Z,73.50
2019-01-13T08:24:22.917Z,73.60
2019-01-13T08:27:14.947Z,73.60
2019-01-13T08:30:07.383Z,73.70
2019-01-13T08:32:59.621Z,73.70
2019-01-13T08:35:51.396Z,73.70
2019-01-13T08:38:43.693Z,73.60
2019-01-13T08:41:35.640Z,73.80
2019-01-13T08:44:28.353Z,73.80
2019-01-13T08:47:20.294Z,73.80
2019-01-13T08:50:14.191Z,73.80
2019-01-13T08:53:06.772Z,73.70
2019-01-13T08:55:58.941Z,73.80
2019-01-13T08:58:50.684Z,73.80
2019-01-13T09:01:42.935Z,73.90
2019-01-13T09:04:35.021Z,73.80
2019-01-13T09:07:27.391Z,73.60
2019-01-13T09:10:20.126Z,73.50
2019-01-13T09:13:12.645Z,73.40
2019-01-13T09:16:05.402Z,73.50
2019-01-13T09:18:57.724Z,73.40
2019-01-13T09:21:49.955Z,73.50
2019-01-13T09:24:41.969Z,73.40
2019-01-13T09:27:34.188Z,73.40
2019-01-13T09:30:27.233Z,73.40
2019-01-13T09:33:19.700Z,73.40
2019-01-13T09:36:11.699Z,73.60
2019-01-13T09:39:04.102Z,73.40
2019-01-13T09:41:56.997Z,73.30
2019-01-13T09:44:49.305Z,73.50
2019-01-13T09:47:41.180Z,73.50
2019-01-13T09:50:33.327Z,73.50
2019-01-13T09:53:25.717Z,73.40
2019-01-13T09:56:17.738Z,73.50
2019-01-13T09:59:10.325Z,73.20
2019-01-13T10:02:02.383Z,73.30
2019-01-13T10:04:55.913Z,73.40
2019-01-13T10:07:48.357Z,73.40
2019-01-13T10:10:40.519Z,73.80
2019-01-13T10:13:33.052Z,73.40
2019-01-13T10:16:26.446Z,73.40
2019-01-13T10:19:20.440Z,73.40
2019-01-13T10:22:12.910Z,73.40
2019-01-13T10:25:05.859Z,73.30
2019-01-13T10:27:58.063Z,73.30
2019-01-13T10:30:50.170Z,73.20
2019-01-13T10:33:42.491Z,73.20
2019-01-13T10:36:34.623Z,73.00
2019-01-13T10:39:26.561Z,72.50
2019-01-13T10:42:18.934Z,72.50
2019-01-13T10:45:11.891Z,72.70
2019-01-13T10:48:04.226Z,73.10
2019-01-13T10:50:56.426Z,73.10
2019-01-13T10:53:48.420Z,73.10
2019-01-13T10:56:40.414Z,72.90
2019-01-13T10:59:32.365Z,72.70
2019-01-13T11:02:24.331Z,72.90
2019-01-13T11:05:16.564Z,72.90
2019-01-13T11:08:11.725Z,72.90
2019-01-13T11:11:02.925Z,72.90
2019-01-13T11:13:54.907Z,72.70
2019-01-13T11:16:47.260Z,72.70
2019-01-13T11:19:39.356Z,72.90
2019-01-13T11:22:31.344Z,72.80
2019-01-13T11:25:23.835Z,72.90
2019-01-13T11:28:16.236Z,73.10
2019-01-13T11:31:08.725Z,72.70
2019-01-13T11:34:00.698Z,72.60
2019-01-13T11:36:52.977Z,72.70
2019-01-13T11:39:45.125Z,72.80
2019-01-13T11:42:37.370Z,73.10
2019-01-13T11:45:30.870Z,73.00
2019-01-13T11:48:23.348Z,73.20
2019-01-13T11:51:15.793Z,73.00
2019-01-13T11:54:08.424Z,73.00
2019-01-13T11:57:00.848Z,73.00
2019-01-13T11:59:53.622Z,73.00
2019-01-13T12:02:45.862Z,73.10
2019-01-13T12:05:37.850Z,72.90
2019-01-13T12:08:30.083Z,73.00
2019-01-13T12:11:22.723Z,72.50
2019-01-13T12:14:15.001Z,72.50
2019-01-13T12:17:07.116Z,72.90
2019-01-13T12:19:59.517Z,72.90
2019-01-13T12:22:51.418Z,72.90
2019-01-13T12:25:43.792Z,73.20
2019-01-13T12:28:36.067Z,73.10
2019-01-13T12:31:28.419Z,73.10
2019-01-13T12:34:20.789Z,73.00
2019-01-13T12:37:13.179Z,73.10
2019-01-13T12:40:05.823Z,73.10
2019-01-13T12:42:57.867Z,73.00
2019-01-13T12:45:50.948Z,73.20
2019-01-13T12:48:43.091Z,73.00
2019-01-13T12:51:35.667Z,73.40
2019-01-13T12:54:28.027Z,73.50
2019-01-13T12:57:20.449Z,73.60
2019-01-13T13:00:13.327Z,73.70
2019-01-13T13:03:05.992Z,73.70
2019-01-13T13:05:59.482Z,73.80
2019-01-13T13:08:52.697Z,73.70
2019-01-13T13:11:45.165Z,73.80
2019-01-13T13:14:37.755Z,74.00
2019-01-13T13:17:29.993Z,74.00
2019-01-13T13:20:22.571Z,74.30
2019-01-13T13:23:15.278Z,74.50
2019-01-13T13:26:07.459Z,74.50
2019-01-13T13:28:59.770Z,74.50
2019-01-13T13:31:52.191Z,74.60
2019-01-13T13:34:44.281Z,74.60
2019-01-13T13:37:36.188Z,74.70
2019-01-13T13:40:28.363Z,74.80
2019-01-13T13:43:20.268Z,74.80
2019-01-13T13:46:12.438Z,74.90
2019-01-13T13:49:04.634Z,74.90
2019-01-13T13:51:56.680Z,75.00
2019-01-13T13:54:49.260Z,75.00
2019-01-13T13:57:41.352Z,75.00
2019-01-13T14:00:36.160Z,75.10
2019-01-13T14:03:28.161Z,75.10
2019-01-13T14:06:19.997Z,75.20
2019-01-13T14:09:12.198Z,75.10
2019-01-13T14:12:04.317Z,75.20
2019-01-13T14:14:56.614Z,75.20
2019-01-13T14:17:48.955Z,75.40
2019-01-13T14:20:40.967Z,75.50
2019-01-13T14:23:33.264Z,75.50
2019-01-13T14:26:25.681Z,75.70
2019-01-13T14:29:18.009Z,75.60
2019-01-13T14:32:10.300Z,75.70
2019-01-13T14:35:02.366Z,75.70
2019-01-13T14:37:54.561Z,75.70
2019-01-13T14:40:46.967Z,75.80
2019-01-13T14:43:39.470Z,75.80
2019-01-13T14:46:32.042Z,75.90
2019-01-13T14:49:24.895Z,75.90
2019-01-13T14:52:17.004Z,75.90
2019-01-13T14:55:09.457Z,75.90
2019-01-13T14:58:01.477Z,75.80
2019-01-13T15:00:53.456Z,75.90
2019-01-13T15:03:45.471Z,76.00
2019-01-13T15:06:37.491Z,76.00
2019-01-13T15:09:29.528Z,76.10
2019-01-13T15:12:21.884Z,76.10
2019-01-13T15:15:15.295Z,76.10
2019-01-13T15:18:07.942Z,76.10
2019-01-13T15:21:00.105Z,76.20
2019-01-13T15:23:51.945Z,76.20
2019-01-13T15:26:43.816Z,76.20
2019-01-13T15:29:36.148Z,76.30
2019-01-13T15:32:29.092Z,76.30
2019-01-13T15:35:21.444Z,76.50
2019-01-13T15:38:14.074Z,76.30
2019-01-13T15:41:05.976Z,76.40
2019-01-13T15:43:57.932Z,76.40
2019-01-13T15:46:50.274Z,76.40
2019-01-13T15:49:42.645Z,76.40
2019-01-13T15:52:34.867Z,76.50
2019-01-13T15:55:26.952Z,76.50
2019-01-13T15:58:18.965Z,76.50
2019-01-13T16:01:11.023Z,76.60
2019-01-13T16:04:03.332Z,76.60
2019-01-13T16:06:55.377Z,76.60
2019-01-13T16:09:47.256Z,76.60
2019-01-13T16:12:39.453Z,76.60
2019-01-13T16:15:34.427Z,76.70
2019-01-13T16:18:25.304Z,76.70
2019-01-13T16:21:17.289Z,76.70
2019-01-13T16:24:09.675Z,76.70
2019-01-13T16:27:01.996Z,76.70
2019-01-13T16:29:54.718Z,76.70
2019-01-13T16:32:47.076Z,76.70
2019-01-13T16:35:39.371Z,76.60
2019-01-13T16:38:31.776Z,76.60
2019-01-13T16:41:23.754Z,76.60
2019-01-13T16:44:15.711Z,76.50
2019-01-13T16:47:07.557Z,76.60
2019-01-13T16:49:59.858Z,76.60
2019-01-13T16:52:53.043Z,76.60
2019-01-13T16:55:45.254Z,76.60
2019-01-13T16:58:37.546Z,76.70
2019-01-13T17:01:29.533Z,76.70
2019-01-13T17:04:28.520Z,76.80
2019-01-13T17:07:15.122Z,76.90
2019-01-13T17:10:08.724Z,76.90
2019-01-13T17:13:01.063Z,76.90
2019-01-13T17:15:53.302Z,76.90
2019-01-13T17:18:45.459Z,77.00
2019-01-13T17:21:38.968Z,77.00
2019-01-13T17:24:31.045Z,77.00
2019-01-13T17:27:23.584Z,76.90
2019-01-13T17:30:17.139Z,77.10
2019-01-13T17:33:09.678Z,77.00
2019-01-13T17:36:01.914Z,76.90
2019-01-13T17:38:55.280Z,76.90
2019-01-13T17:41:47.519Z,76.90
2019-01-13T17:44:39.522Z,76.90
2019-01-13T17:47:31.585Z,76.90
2019-01-13T17:50:24.228Z,76.90
2019-01-13T17:53:16.269Z,77.00
2019-01-13T17:56:08.269Z,77.00
2019-01-13T17:58:59.911Z,77.00
2019-01-13T18:01:53.867Z,77.10
2019-01-13T18:04:45.909Z,77.10
2019-01-13T18:07:38.004Z,77.10
2019-01-13T18:10:29.955Z,77.20
2019-01-13T18:13:22.339Z,77.10
2019-01-13T18:16:14.586Z,77.20
2019-01-13T18:19:06.713Z,77.20
2019-01-13T18:21:59.344Z,77.10
2019-01-13T18:24:51.627Z,77.20
2019-01-13T18:27:43.709Z,77.30
2019-01-13T18:30:36.075Z,77.20
2019-01-13T18:33:28.420Z,77.30
2019-01-13T18:36:20.676Z,77.40
2019-01-13T18:39:13.108Z,77.30
2019-01-13T18:42:05.492Z,77.30
2019-01-13T18:44:57.804Z,77.20
2019-01-13T18:47:50.070Z,77.30
2019-01-13T18:50:42.386Z,77.30
2019-01-13T18:53:35.630Z,77.40
2019-01-13T18:56:27.946Z,77.30
2019-01-13T18:59:19.718Z,77.20
2019-01-13T19:02:11.709Z,77.20
2019-01-13T19:05:04.100Z,77.20
2019-01-13T19:07:56.168Z,77.30
2019-01-13T19:10:59.159Z,77.20
2019-01-13T19:13:55.523Z,77.20
2019-01-13T19:16:50.560Z,77.30
2019-01-13T19:19:45.650Z,77.20
2019-01-13T19:22:38.408Z,77.20
2019-01-13T19:25:31.771Z,77.20
2019-01-13T19:28:24.036Z,77.20
2019-01-13T19:31:16.264Z,77.20
2019-01-13T19:34:08.399Z,77.40
2019-01-13T19:37:00.440Z,77.20
2019-01-13T19:39:52.483Z,77.20
2019-01-13T19:42:44.733Z,77.30
2019-01-13T19:45:36.852Z,77.30
2019-01-13T19:48:29.167Z,77.30
2019-01-13T19:51:21.503Z,77.20
2019-01-13T19:54:13.567Z,77.30
2019-01-13T19:57:05.580Z,77.30
2019-01-13T19:59:58.012Z,77.20
2019-01-13T20:02:50.602Z,77.10
2019-01-13T20:05:42.883Z,77.00
2019-01-13T20:08:35.268Z,76.80
2019-01-13T20:11:27.553Z,77.00
2019-01-13T20:14:19.897Z,76.90
2019-01-13T20:17:12.310Z,76.80
2019-01-13T20:20:04.596Z,77.20
2019-01-13T20:22:57.040Z,77.00
2019-01-13T20:25:51.480Z,77.00
2019-01-13T20:28:44.119Z,76.90
2019-01-13T20:31:36.138Z,77.00
2019-01-13T20:34:28.184Z,76.90
2019-01-13T20:37:20.219Z,76.90
2019-01-13T20:40:12.525Z,76.90
2019-01-13T20:43:04.450Z,76.90
2019-01-13T20:45:56.616Z,76.60
2019-01-13T20:48:48.562Z,76.80
2019-01-13T20:51:40.641Z,76.80
2019-01-13T20:54:32.978Z,76.90
2019-01-13T20:57:25.288Z,77.00
2019-01-13T21:00:21.796Z,76.90
2019-01-13T21:03:14.005Z,76.80
2019-01-13T21:06:06.307Z,76.50
2019-01-13T21:08:58.372Z,76.50
2019-01-13T21:11:50.346Z,76.60
2019-01-13T21:14:42.254Z,76.80
2019-01-13T21:17:34.460Z,77.00
2019-01-13T21:20:26.987Z,76.70
2019-01-13T21:23:19.171Z,76.70
2019-01-13T21:26:11.474Z,76.40
2019-01-13T21:29:04.769Z,75.80
2019-01-13T21:31:56.799Z,75.50
2019-01-13T21:34:48.857Z,75.40
2019-01-13T21:37:41.137Z,75.90
2019-01-13T21:40:33.204Z,76.50
2019-01-13T21:43:25.351Z,76.40
2019-01-13T21:46:17.508Z,76.70
2019-01-13T21:49:09.557Z,76.50
2019-01-13T21:52:01.902Z,76.30
2019-01-13T21:54:53.980Z,76.80
2019-01-13T21:57:46.321Z,76.30
2019-01-13T22:00:38.634Z,76.60
2019-01-13T22:03:30.986Z,76.50
2019-01-13T22:06:23.238Z,76.60
2019-01-13T22:09:16.119Z,76.60
2019-01-13T22:12:08.246Z,76.50
2019-01-13T22:15:00.312Z,76.50
2019-01-13T22:17:52.833Z,76.50
2019-01-13T22:20:44.747Z,76.30
2019-01-13T22:23:36.776Z,76.40
2019-01-13T22:26:29.125Z,76.30
2019-01-13T22:29:21.405Z,76.30
2019-01-13T22:32:13.729Z,76.40
2019-01-13T22:35:06.129Z,76.50
2019-01-13T22:37:58.117Z,76.40
2019-01-13T22:40:50.144Z,76.30
2019-01-13T22:43:42.422Z,76.40
2019-01-13T22:46:34.849Z,76.40
2019-01-13T22:49:26.887Z,76.30
2019-01-13T22:52:18.910Z,76.40
2019-01-13T22:55:11.313Z,76.30
2019-01-13T22:58:03.260Z,76.40
2019-01-13T23:01:08.656Z,76.40
2019-01-13T23:04:02.599Z,76.40
2019-01-13T23:06:55.060Z,76.50
2019-01-13T23:09:47.174Z,76.60
2019-01-13T23:12:39.438Z,76.70
2019-01-13T23:15:31.760Z,76.70
2019-01-13T23:18:24.089Z,76.50
2019-01-13T23:21:16.636Z,76.60
2019-01-13T23:24:09.006Z,76.70
2019-01-13T23:27:02.019Z,76.70
2019-01-13T23:29:54.061Z,76.70
2019-01-13T23:32:46.164Z,76.70
2019-01-13T23:35:38.236Z,76.70
2019-01-13T23:38:30.463Z,76.80
2019-01-13T23:41:22.752Z,76.90
2019-01-13T23:44:14.891Z,76.90
2019-01-13T23:47:07.501Z,76.90
2019-01-13T23:49:59.878Z,77.10
2019-01-13T23:52:52.319Z,76.80
2019-01-13T23:55:44.487Z,77.10
2019-01-13T23:58:36.508Z,76.90
